Time;durP1;ratioP1;P1;durP2;ratioP2;P2;SDS_P1;SDS_P2;PMS_P1;PMS_P2;Temp;Humidity;BMP_temperature;BMP_pressure;BME280_temperature;BME280_humidity;BME280_pressure;Samples;Min_cycle;Max_cycle;Signal;HPM_P1;HPM_P2
2022/12/04 00:02:24;;;;;;;34.63;15.33;;;;;;;-4.03;100.00;102342.16;1732363;82;21135;-65
2022/12/04 00:04:51;;;;;;;30.53;13.47;;;;;;;-3.99;100.00;102339.38;1732134;82;21386;-65
2022/12/04 00:07:17;;;;;;;31.70;13.73;;;;;;;-3.94;100.00;102344.78;1732274;82;21268;-66
2022/12/04 00:09:44;;;;;;;26.43;13.37;;;;;;;-3.88;100.00;102349.02;1699611;84;21018;-66
2022/12/04 00:12:10;;;;;;;24.50;11.77;;;;;;;-3.94;100.00;102343.09;1732248;82;21053;-65
2022/12/04 00:14:36;;;;;;;26.03;13.33;;;;;;;-3.79;100.00;102343.09;1699494;84;21112;-66
2022/12/04 00:17:03;;;;;;;23.97;12.20;;;;;;;-3.60;100.00;102341.16;1732321;82;21553;-66
2022/12/04 00:19:29;;;;;;;25.60;12.80;;;;;;;-3.59;100.00;102341.63;1699528;84;21050;-65
2022/12/04 00:21:56;;;;;;;22.50;12.30;;;;;;;-3.48;100.00;102343.11;1732375;82;21033;-65
2022/12/04 00:24:23;;;;;;;27.73;12.67;;;;;;;-3.53;100.00;102344.55;1732042;82;21157;-66
2022/12/04 00:26:49;;;;;;;28.77;13.43;;;;;;;-3.48;100.00;102337.08;1699823;84;21057;-65
2022/12/04 00:29:16;;;;;;;24.27;13.43;;;;;;;-3.37;100.00;102339.44;1732058;82;22052;-66
2022/12/04 00:31:43;;;;;;;21.87;11.23;;;;;;;-3.28;100.00;102346.80;1732010;82;21009;-65
2022/12/04 00:34:09;;;;;;;25.70;12.83;;;;;;;-3.32;100.00;102344.84;1731945;82;21092;-66
2022/12/04 00:36:36;;;;;;;19.20;9.73;;;;;;;-3.27;100.00;102349.84;1732207;82;21127;-68
2022/12/04 00:39:02;;;;;;;26.07;12.77;;;;;;;-3.11;100.00;102350.69;1731976;82;21041;-65
2022/12/04 00:41:31;;;;;;;22.67;11.57;;;;;;;-3.03;100.00;102345.56;1732106;82;21200;-66
2022/12/04 00:44:00;;;;;;;24.57;12.70;;;;;;;-3.36;100.00;102345.47;1699776;84;21077;-65
2022/12/04 00:46:27;;;;;;;28.07;13.40;;;;;;;-3.48;100.00;102358.57;1732080;82;21596;-66
2022/12/04 00:48:53;;;;;;;24.87;12.23;;;;;;;-3.45;100.00;102357.84;1732225;82;21061;-66
2022/12/04 00:51:22;;;;;;;30.07;13.03;;;;;;;-3.66;100.00;102358.45;1699558;84;21049;-66
2022/12/04 00:53:51;;;;;;;25.82;13.05;;;;;;;-3.63;100.00;102366.75;1733082;82;21214;-65
2022/12/04 00:56:22;;;;;;;26.63;12.97;;;;;;;-3.54;100.00;102356.05;1735674;82;21525;-65
2022/12/04 00:58:51;;;;;;;29.57;13.83;;;;;;;-3.66;100.00;102361.02;1735697;82;22197;-66
2022/12/04 01:01:19;;;;;;;24.98;13.22;;;;;;;-3.68;100.00;102358.76;1735817;82;21117;-66
2022/12/04 01:03:46;;;;;;;26.43;12.17;;;;;;;-3.84;100.00;102366.41;1735465;82;21038;-67
2022/12/04 01:06:24;;;;;;;32.87;14.67;;;;;;;-3.73;100.00;102363.14;1735833;82;21752;-65
2022/12/04 01:08:52;;;;;;;27.97;14.47;;;;;;;-3.69;100.00;102365.10;1735406;82;21041;-66
2022/12/04 01:11:19;;;;;;;25.50;13.47;;;;;;;-3.76;100.00;102363.86;1735666;82;21053;-66
2022/12/04 01:13:46;;;;;;;29.20;13.37;;;;;;;-3.57;100.00;102364.91;1735667;82;21736;-66
2022/12/04 01:16:20;;;;;;;27.37;11.53;;;;;;;-3.50;100.00;102368.30;1735500;82;21069;-66
2022/12/04 01:18:46;;;;;;;26.13;12.43;;;;;;;-3.46;100.00;102362.53;1735784;82;21107;-66
2022/12/04 01:21:12;;;;;;;32.13;14.63;;;;;;;-3.29;100.00;102359.21;1735680;82;21070;-65
2022/12/04 01:23:39;;;;;;;24.23;12.67;;;;;;;-3.35;100.00;102357.58;1735222;82;21109;-66
2022/12/04 01:26:05;;;;;;;27.97;12.57;;;;;;;-3.31;100.00;102360.81;1735358;82;21049;-65
2022/12/04 01:28:32;;;;;;;26.20;12.17;;;;;;;-3.25;100.00;102362.41;1735626;82;21056;-66
2022/12/04 01:31:08;;;;;;;29.17;14.00;;;;;;;-3.38;100.00;102357.01;1735616;82;21266;-65
2022/12/04 01:33:36;;;;;;;32.97;14.30;;;;;;;-3.60;100.00;102370.36;1735528;82;21050;-65
2022/12/04 01:36:05;;;;;;;29.07;13.87;;;;;;;-3.68;100.00;102369.44;1735876;82;21102;-65
2022/12/04 01:38:32;;;;;;;30.60;13.83;;;;;;;-3.85;100.00;102364.63;1735673;81;21030;-66
2022/12/04 01:40:59;;;;;;;27.77;13.87;;;;;;;-3.80;100.00;102370.91;1736038;82;21044;-65
2022/12/04 01:43:28;;;;;;;35.00;15.27;;;;;;;-4.03;100.00;102373.05;1736224;82;22292;-66
2022/12/04 01:45:56;;;;;;;24.30;11.47;;;;;;;-4.03;100.00;102370.47;1735885;82;21049;-65
2022/12/04 01:48:45;;;;;;;26.83;13.83;;;;;;;-4.09;100.00;102378.27;1736331;82;21549;-66
2022/12/04 01:51:26;;;;;;;30.12;12.78;;;;;;;-4.02;100.00;102373.55;1736359;82;21049;-66
2022/12/04 01:53:57;;;;;;;27.67;14.65;;;;;;;-3.96;100.00;102372.13;1736179;82;21065;-67
2022/12/04 01:56:28;;;;;;;27.03;13.63;;;;;;;-4.08;100.00;102378.33;1710980;82;21137;-65
2022/12/04 01:58:54;;;;;;;;;;;;;;;-4.16;100.00;102378.30;1738180;81;21522;-65
2022/12/04 02:01:20;;;;;;;40.27;16.73;;;;;;;-4.35;100.00;102375.01;1736042;82;20215;-65
2022/12/04 02:03:47;;;;;;;29.90;14.10;;;;;;;-4.38;100.00;102376.13;1736016;82;21592;-65
2022/12/04 02:06:14;;;;;;;32.60;16.10;;;;;;;-4.15;100.00;102376.20;1735993;82;21120;-65
2022/12/04 02:08:40;;;;;;;32.10;14.70;;;;;;;-4.37;100.00;102370.58;1735793;82;21272;-66
2022/12/04 02:11:15;;;;;;;35.57;15.03;;;;;;;-4.21;100.00;102378.40;1736114;82;21081;-65
2022/12/04 02:14:02;;;;;;;33.83;16.13;;;;;;;-3.91;100.00;102380.99;1736219;82;21125;-66
2022/12/04 02:16:34;;;;;;;34.00;14.90;;;;;;;-4.00;100.00;102369.79;1735923;82;21069;-63
2022/12/04 04:29:39;;;;;;;41.03;19.10;;;;;;;-7.40;100.00;102427.69;1888348;74;26403;-96
2022/12/04 04:32:43;;;;;;;49.80;21.37;;;;;;;-7.24;100.00;102427.13;1826800;75;21053;-94
2022/12/04 04:35:26;;;;;;;40.57;18.20;;;;;;;-7.00;100.00;102416.45;1795904;78;21246;-94
2022/12/04 04:38:15;;;;;;;37.23;16.97;;;;;;;-6.67;100.00;102414.09;1797004;78;21009;-95
2022/12/04 04:41:02;;;;;;;34.13;15.93;;;;;;;-6.37;100.00;102414.42;1826274;78;21002;-94
2022/12/04 04:43:33;;;;;;;31.47;14.13;;;;;;;-6.18;100.00;102414.86;1827788;78;21046;-94
2022/12/04 04:46:23;;;;;;;29.63;14.53;;;;;;;-6.01;100.00;102409.97;1828757;76;20912;-94
2022/12/04 04:48:51;;;;;;;24.10;12.90;;;;;;;-5.89;100.00;102413.30;1828478;76;21219;-94
2022/12/04 04:51:25;;;;;;;26.67;12.87;;;;;;;-5.64;100.00;102416.21;1827742;76;20884;-93
2022/12/04 04:53:58;;;;;;;24.60;11.80;;;;;;;-5.57;100.00;102410.68;1828457;78;21024;-93
2022/12/04 04:56:27;;;;;;;20.40;11.70;;;;;;;-5.54;100.00;102415.63;1825895;78;21038;-95
2022/12/04 04:58:58;;;;;;;27.37;11.10;;;;;;;-5.45;100.00;102409.30;1796097;78;20994;-95
2022/12/04 05:01:28;;;;;;;24.77;11.95;;;;;;;-5.45;100.00;102411.50;1825287;78;26982;-93
2022/12/04 05:04:07;;;;;;;28.27;12.47;;;;;;;-5.35;100.00;102410.00;1824397;78;21042;-95
2022/12/04 05:06:46;;;;;;;22.10;11.00;;;;;;;-5.42;100.00;102409.12;1825309;78;20991;-94
2022/12/04 05:09:18;;;;;;;26.40;12.03;;;;;;;-5.36;100.00;102414.66;1825589;78;21046;-95
2022/12/04 05:11:46;;;;;;;21.10;10.97;;;;;;;-5.34;100.00;102417.30;1825513;78;21006;-96
2022/12/04 05:14:13;;;;;;;26.83;11.70;;;;;;;-5.33;100.00;102428.97;1825807;78;21227;-95
2022/12/04 05:16:41;;;;;;;24.93;11.07;;;;;;;-5.35;100.00;102424.53;1826365;78;21653;-95
2022/12/04 05:21:55;;;;;;;19.03;9.87;;;;;;;-5.32;100.00;102422.14;1803744;78;20967;-94
2022/12/04 05:24:28;;;;;;;21.07;9.60;;;;;;;-5.15;100.00;102427.97;1828423;76;21405;-92
2022/12/04 05:27:01;;;;;;;20.20;9.80;;;;;;;-5.12;100.00;102427.28;1828288;76;20974;-94
2022/12/04 05:29:34;;;;;;;25.77;11.43;;;;;;;-5.06;100.00;102419.97;1828254;76;21042;-93
2022/12/04 05:32:04;;;;;;;17.75;9.73;;;;;;;-4.91;100.00;102425.16;1828126;78;27566;-95
2022/12/04 05:34:35;;;;;;;23.20;11.00;;;;;;;-4.76;100.00;102422.64;1826960;78;20975;-95
2022/12/04 05:37:03;;;;;;;21.68;10.95;;;;;;;-4.80;100.00;102429.70;1828107;78;21093;-96
2022/12/04 05:39:36;;;;;;;24.13;9.93;;;;;;;-4.68;100.00;102429.16;1827775;78;20931;-96
2022/12/04 05:42:03;;;;;;;21.03;9.90;;;;;;;-4.50;100.00;102424.27;1798672;78;20939;-93
2022/12/04 05:44:32;;;;;;;22.27;10.60;;;;;;;-4.34;100.00;102427.38;1771574;78;21023;-94
2022/12/04 05:47:06;;;;;;;24.63;11.00;;;;;;;-4.26;100.00;102427.42;1797454;78;21026;-94
2022/12/04 05:49:36;;;;;;;21.93;10.57;;;;;;;-4.37;100.00;102430.66;1826986;78;21018;-93
2022/12/04 05:52:05;;;;;;;27.93;11.40;;;;;;;-4.37;100.00;102424.22;1798033;78;21056;-95
2022/12/04 05:54:36;;;;;;;23.87;10.63;;;;;;;-4.46;100.00;102428.41;1827772;78;21015;-95
2022/12/04 05:57:07;;;;;;;22.20;9.63;;;;;;;-4.71;100.00;102430.27;1827950;76;21052;-95
2022/12/04 05:59:41;;;;;;;25.12;10.95;;;;;;;-4.75;100.00;102434.72;1828049;76;20994;-94
2022/12/04 06:02:20;;;;;;;26.40;10.93;;;;;;;-4.72;100.00;102436.19;1822398;76;21008;-95
2022/12/04 06:04:50;;;;;;;24.73;11.23;;;;;;;-4.67;100.00;102427.06;1827519;76;21241;-94
2022/12/04 06:07:27;;;;;;;21.80;11.60;;;;;;;-4.81;100.00;102440.76;1794706;78;20998;-94
2022/12/04 06:09:58;;;;;;;30.10;12.10;;;;;;;-4.87;100.00;102438.30;1797388;76;20987;-95
2022/12/04 06:12:30;;;;;;;22.07;9.73;;;;;;;-4.83;100.00;102435.91;1797103;78;21336;-95
2022/12/04 06:15:06;;;;;;;26.07;11.97;;;;;;;-4.72;100.00;102438.36;1797627;78;21070;-94
2022/12/04 06:17:35;;;;;;;24.03;12.10;;;;;;;-4.54;100.00;102437.32;1797204;76;86633;-67
2022/12/04 06:20:01;;;;;;;24.73;12.43;;;;;;;-4.68;100.00;102431.33;1819074;78;20990;-66
2022/12/04 06:22:28;;;;;;;23.03;12.13;;;;;;;-4.66;100.00;102432.72;1819290;78;21033;-66
2022/12/04 06:24:54;;;;;;;24.70;12.17;;;;;;;-4.46;100.00;102440.38;1818971;78;20996;-67
2022/12/04 06:27:21;;;;;;;23.27;11.10;;;;;;;-4.29;100.00;102443.97;1819061;78;21009;-66
2022/12/04 06:29:49;;;;;;;30.30;12.97;;;;;;;-4.27;100.00;102441.09;1817312;78;21608;-65
2022/12/04 06:32:16;;;;;;;26.70;13.23;;;;;;;-4.28;100.00;102453.45;1817729;78;21053;-66
2022/12/04 06:34:42;;;;;;;27.83;13.50;;;;;;;-4.24;100.00;102447.70;1817817;78;21037;-66
2022/12/04 06:37:08;;;;;;;31.00;13.93;;;;;;;-4.38;100.00;102451.13;1817748;78;21068;-67
2022/12/04 06:39:35;;;;;;;38.70;15.77;;;;;;;-4.50;100.00;102456.01;1817338;78;21001;-67
2022/12/04 06:42:02;;;;;;;31.13;13.50;;;;;;;-4.52;100.00;102455.02;1817619;78;21351;-66
2022/12/04 06:44:28;;;;;;;36.13;15.07;;;;;;;-4.51;100.00;102465.82;1817428;78;20982;-67
2022/12/04 06:46:55;;;;;;;31.53;13.90;;;;;;;-4.54;100.00;102470.75;1817240;78;21076;-67
2022/12/04 06:49:21;;;;;;;28.50;12.97;;;;;;;-4.65;100.00;102470.11;1817720;78;21051;-67
2022/12/04 06:51:48;;;;;;;24.57;12.03;;;;;;;-4.62;100.00;102468.13;1817317;78;21032;-66
2022/12/04 06:54:15;;;;;;;27.13;12.23;;;;;;;-4.59;100.00;102468.70;1817324;78;22135;-66
2022/12/04 06:56:41;;;;;;;30.53;11.17;;;;;;;-4.78;100.00;102465.39;1817175;78;21656;-66
2022/12/04 06:59:08;;;;;;;25.97;11.87;;;;;;;-4.62;100.00;102478.41;1817428;78;21037;-66
2022/12/04 07:01:37;;;;;;;22.73;10.80;;;;;;;-4.69;100.00;102478.83;1817436;78;21493;-66
2022/12/04 07:04:03;;;;;;;22.67;11.67;;;;;;;-4.92;100.00;102475.69;1817596;78;22153;-66
2022/12/04 07:06:35;;;;;;;24.80;13.20;;;;;;;-4.84;100.00;102472.30;1817731;78;21118;-66
2022/12/04 07:09:08;;;;;;;25.70;11.17;;;;;;;-4.95;100.00;102481.89;1817245;78;21005;-66
2022/12/04 07:11:36;;;;;;;23.13;10.87;;;;;;;-5.01;100.00;102478.95;1817444;78;21021;-66
2022/12/04 07:14:03;;;;;;;20.43;10.33;;;;;;;-4.93;100.00;102477.75;1817529;78;21534;-66
2022/12/04 07:16:30;;;;;;;19.73;10.23;;;;;;;-4.91;100.00;102476.17;1817365;78;21109;-67
2022/12/04 07:18:56;;;;;;;20.63;9.90;;;;;;;-4.76;100.00;102475.34;1816571;78;21279;-67
2022/12/04 07:21:26;;;;;;;16.17;8.83;;;;;;;-4.59;100.00;102478.59;1817309;78;21014;-66
2022/12/04 07:23:55;;;;;;;20.48;10.72;;;;;;;-4.56;100.00;102474.91;1817640;78;21088;-67
2022/12/04 07:26:22;;;;;;;23.20;10.10;;;;;;;-4.55;100.00;102486.99;1817295;78;21021;-66
2022/12/04 07:28:49;;;;;;;22.27;9.93;;;;;;;-4.51;100.00;102488.97;1817776;78;21077;-66
2022/12/04 07:31:19;;;;;;;24.13;9.80;;;;;;;-4.34;100.00;102485.25;1817518;78;21593;-68
2022/12/04 07:33:46;;;;;;;23.92;10.65;;;;;;;-4.19;100.00;102481.02;1817896;78;21017;-67
2022/12/04 07:36:15;;;;;;;27.83;13.83;;;;;;;-4.06;100.00;102474.54;1817445;78;21080;-66
2022/12/04 07:38:42;;;;;;;20.60;9.93;;;;;;;-4.08;100.00;102474.84;1817319;78;21037;-67
2022/12/04 07:41:10;;;;;;;13.87;6.70;;;;;;;-4.14;100.00;102468.06;1817688;78;21005;-66
2022/12/04 07:43:37;;;;;;;23.53;8.43;;;;;;;-4.40;100.00;102488.32;1817423;78;21541;-67
2022/12/04 07:46:13;;;;;;;16.40;7.53;;;;;;;-4.72;100.00;102485.03;1817491;78;21869;-66
2022/12/04 07:48:40;;;;;;;22.97;10.20;;;;;;;-4.79;100.00;102487.62;1817411;78;21001;-67
2022/12/04 07:51:09;;;;;;;19.93;9.20;;;;;;;-4.94;100.00;102486.27;1817870;78;21037;-67
2022/12/04 07:53:36;;;;;;;21.80;9.70;;;;;;;-4.92;100.00;102489.83;1817585;78;20998;-67
2022/12/04 07:56:04;;;;;;;19.07;9.07;;;;;;;-4.89;100.00;102492.58;1817663;78;21819;-67
2022/12/04 07:58:30;;;;;;;22.20;8.87;;;;;;;-4.79;100.00;102489.30;1817461;78;21077;-66
2022/12/04 08:01:11;;;;;;;24.43;11.03;;;;;;;-4.92;100.00;102487.25;1817393;78;21066;-67
2022/12/04 08:03:39;;;;;;;26.20;11.17;;;;;;;-4.77;100.00;102482.17;1817927;78;21029;-68
2022/12/04 08:06:06;;;;;;;29.93;11.20;;;;;;;-4.78;100.00;102485.96;1817437;78;21092;-67
2022/12/04 08:08:34;;;;;;;24.80;10.27;;;;;;;-4.81;100.00;102487.03;1817832;78;21105;-67
2022/12/04 08:11:00;;;;;;;24.90;10.97;;;;;;;-4.66;100.00;102480.29;1817301;78;21013;-66
2022/12/04 08:13:27;;;;;;;23.43;11.10;;;;;;;-4.54;100.00;102477.19;1785176;78;21083;-66
2022/12/04 08:15:53;;;;;;;50.43;18.80;;;;;;;-4.46;100.00;102491.42;1739358;82;21050;-67
2022/12/04 08:18:20;;;;;;;56.53;20.17;;;;;;;-4.45;100.00;102478.16;1742677;82;21042;-66
2022/12/04 08:20:46;;;;;;;26.63;12.17;;;;;;;-4.69;100.00;102483.56;1762485;81;21584;-67
2022/12/04 08:23:13;;;;;;;33.83;12.93;;;;;;;-4.73;100.00;102475.56;1745069;82;21040;-67
2022/12/04 08:25:40;;;;;;;35.60;14.20;;;;;;;-4.70;100.00;102471.48;1762227;81;21057;-67
2022/12/04 08:28:06;;;;;;;48.43;17.00;;;;;;;-4.64;100.00;102474.84;1745062;82;21007;-67
2022/12/04 08:30:34;;;;;;;38.87;15.83;;;;;;;-4.66;100.00;102481.58;1762131;81;21025;-67
2022/12/04 08:33:01;;;;;;;27.83;11.17;;;;;;;-4.74;100.00;102484.05;1762429;81;21312;-67
2022/12/04 08:35:28;;;;;;;27.60;11.03;;;;;;;-4.94;100.00;102495.27;1744986;82;21045;-68
2022/12/04 08:37:55;;;;;;;32.03;15.20;;;;;;;-4.87;100.00;102484.58;1762122;81;21122;-67
2022/12/04 08:40:22;;;;;;;29.37;13.77;;;;;;;-4.83;100.00;102478.33;1744936;82;21541;-69
2022/12/04 08:42:48;;;;;;;50.07;19.70;;;;;;;-4.78;100.00;102466.68;1762161;81;20989;-66
2022/12/04 08:45:15;;;;;;;34.93;13.33;;;;;;;-4.81;100.00;102462.61;1744978;82;21228;-66
2022/12/04 08:47:41;;;;;;;27.90;11.23;;;;;;;-4.76;100.00;102468.92;1762372;81;21042;-67
2022/12/04 08:50:09;;;;;;;28.47;13.53;;;;;;;-4.58;100.00;102469.19;1762114;81;21021;-66
2022/12/04 08:52:35;;;;;;;25.27;11.73;;;;;;;-4.51;100.00;102467.48;1744959;82;21049;-67
2022/12/04 08:55:02;;;;;;;24.50;12.40;;;;;;;-4.56;100.00;102468.48;1762138;81;21069;-66
2022/12/04 08:57:29;;;;;;;35.07;14.80;;;;;;;-4.71;100.00;102453.41;1745058;82;22279;-66
2022/12/04 08:59:55;;;;;;;37.87;16.53;;;;;;;-4.79;100.00;102459.34;1762339;81;21049;-67
2022/12/04 09:02:22;;;;;;;25.33;10.40;;;;;;;-4.65;100.00;102449.54;1745049;82;21186;-66
2022/12/04 09:04:48;;;;;;;19.00;8.97;;;;;;;-4.71;100.00;102445.70;1762542;81;21096;-66
2022/12/04 09:07:15;;;;;;;25.37;10.53;;;;;;;-4.78;100.00;102451.26;1744883;82;21010;-66
2022/12/04 09:09:42;;;;;;;23.90;10.40;;;;;;;-4.58;100.00;102452.47;1762173;81;21213;-67
2022/12/04 09:12:08;;;;;;;25.63;11.60;;;;;;;-4.51;100.00;102442.67;1744934;82;21303;-67
2022/12/04 09:14:35;;;;;;;31.53;14.33;;;;;;;-4.30;100.00;102458.89;1755342;81;21026;-67
2022/12/04 09:17:02;;;;;;;43.27;18.47;;;;;;;-4.18;100.00;102448.08;1750185;82;21530;-67
2022/12/04 09:19:30;;;;;;;29.73;11.67;;;;;;;-4.05;100.00;102448.02;1745238;82;21054;-67
2022/12/04 09:21:57;;;;;;;22.83;10.07;;;;;;;-3.77;100.00;102447.45;1744641;82;21155;-66
2022/12/04 09:24:24;;;;;;;38.83;15.27;;;;;;;-3.43;100.00;102447.70;1744460;82;21054;-68
2022/12/04 09:26:51;;;;;;;38.80;14.37;;;;;;;-3.36;100.00;102440.81;1744339;82;21093;-66
2022/12/04 09:29:17;;;;;;;23.50;10.90;;;;;;;-2.98;100.00;102440.79;1744305;82;21085;-67
2022/12/04 09:31:44;;;;;;;28.27;11.80;;;;;;;-2.60;100.00;102435.52;1744403;82;21121;-66
2022/12/04 09:34:10;;;;;;;21.55;9.90;;;;;;;-2.17;99.95;102436.50;1744386;82;21829;-67
2022/12/04 09:36:37;;;;;;;34.80;15.05;;;;;;;-1.85;95.69;102437.27;1744334;82;21066;-67
2022/12/04 09:39:04;;;;;;;28.17;11.28;;;;;;;-1.29;94.30;102438.79;1744255;82;21082;-67
2022/12/04 09:42:08;;;;;;;24.95;9.85;;;;;;;-0.57;82.01;102428.33;1744231;82;20995;-67
2022/12/04 09:44:41;;;;;;;29.85;13.18;;;;;;;0.09;67.91;102419.97;1744378;82;21166;-67
2022/12/04 09:47:28;;;;;;;52.13;21.02;;;;;;;0.91;65.99;102419.00;1744259;82;21130;-67
2022/12/04 09:50:06;;;;;;;22.15;10.72;;;;;;;1.42;62.59;102415.31;1744438;82;21029;-66
2022/12/04 09:52:51;;;;;;;21.37;9.13;;;;;;;2.10;60.84;102412.11;1744046;82;21030;-68
2022/12/04 09:55:34;;;;;;;26.02;10.78;;;;;;;2.54;57.42;102417.04;1743505;82;21038;-67
2022/12/04 09:58:03;;;;;;;23.62;11.45;;;;;;;3.36;56.93;102404.39;1744480;82;21109;-67
2022/12/04 10:00:30;;;;;;;36.70;18.77;;;;;;;4.02;53.65;102406.62;1744640;82;21204;-66
2022/12/04 14:24:37;;;;;;;22.90;11.53;;;;;;;-3.88;76.98;102324.55;1820006;78;22668;-66
2022/12/04 14:27:42;;;;;;;25.32;10.78;;;;;;;-3.72;75.89;102318.17;1799865;79;21039;-66
2022/12/04 14:30:29;;;;;;;19.37;8.65;;;;;;;-3.60;75.78;102317.97;1799743;79;21364;-67
2022/12/04 14:33:09;;;;;;;30.88;12.98;;;;;;;-3.42;74.34;102316.82;1800180;79;20951;-66
2022/12/04 14:36:04;;;;;;;26.10;11.12;;;;;;;-3.31;74.65;102315.72;1799744;79;21059;-67
2022/12/04 14:38:31;;;;;;;23.22;9.33;;;;;;;-3.25;73.04;102316.03;1799934;79;21566;-66
2022/12/04 14:40:57;;;;;;;25.23;9.75;;;;;;;-3.10;72.69;102316.39;1800031;79;21507;-67
2022/12/04 14:43:29;;;;;;;30.60;11.95;;;;;;;-3.00;73.37;102318.64;1799717;79;21133;-66
2022/12/04 14:46:41;;;;;;;83.67;30.80;;;;;;;-3.01;70.99;102312.61;1799992;79;20978;-67
2022/12/04 14:49:32;;;;;;;52.62;20.75;;;;;;;-3.02;70.29;102314.69;1799878;79;21620;-66
2022/12/04 14:52:20;;;;;;;33.55;15.35;;;;;;;-3.20;69.42;102321.43;1799520;79;21071;-67
2022/12/04 14:55:16;;;;;;;47.90;18.82;;;;;;;-3.33;69.72;102323.77;1799979;79;21083;-67
2022/12/04 14:57:53;;;;;;;28.98;13.93;;;;;;;-3.26;69.28;102323.29;1786840;79;21208;-65
2022/12/04 15:00:22;;;;;;;28.17;12.55;;;;;;;-3.27;69.24;102327.94;1799957;79;21043;-67
2022/12/04 15:02:57;;;;;;;29.70;14.00;;;;;;;-3.37;69.38;102330.42;1799775;79;21145;-67
2022/12/04 15:05:30;;;;;;;31.35;13.08;;;;;;;-3.44;69.29;102328.73;1799948;79;21027;-66
2022/12/04 15:08:01;;;;;;;23.00;9.80;;;;;;;-3.45;68.88;102332.09;1799775;79;21015;-67
2022/12/04 15:13:31;;;;;;;24.77;9.83;;;;;;;-3.49;68.78;102335.32;1798280;79;21113;-67
2022/12/04 15:15:57;;;;;;;22.48;10.65;;;;;;;-3.41;68.64;102334.03;1793296;80;21035;-66
2022/12/04 15:18:23;;;;;;;15.67;7.33;;;;;;;-3.40;68.03;102335.42;1793059;80;21035;-66
2022/12/04 15:20:55;;;;;;;16.83;7.07;;;;;;;-3.50;67.32;102333.53;1793146;80;21075;-67
2022/12/04 15:23:39;;;;;;;19.60;8.53;;;;;;;-3.42;66.57;102332.28;1784986;80;21768;-66
2022/12/04 15:26:15;;;;;;;25.97;10.10;;;;;;;-3.35;66.75;102333.50;1772693;80;21540;-67
2022/12/04 15:28:56;;;;;;;25.10;9.57;;;;;;;-3.33;66.56;102336.64;1747879;80;21088;-66
2022/12/04 15:31:26;;;;;;;29.95;12.25;;;;;;;-3.37;66.70;102330.83;1773023;80;21041;-66
2022/12/04 15:33:57;;;;;;;32.78;14.00;;;;;;;-3.45;66.55;102329.14;1772872;80;25915;-67
2022/12/04 15:36:48;;;;;;;25.35;11.05;;;;;;;-3.46;66.46;102326.46;1773307;80;21777;-66
2022/12/04 15:39:19;;;;;;;22.63;9.57;;;;;;;-3.57;66.70;102324.98;1772808;80;20989;-66
2022/12/04 15:41:45;;;;;;;21.87;10.35;;;;;;;-3.54;66.60;102320.90;1773331;80;21073;-67
2022/12/04 15:44:34;;;;;;;24.05;11.38;;;;;;;-3.46;66.69;102322.59;1772673;80;21582;-67
2022/12/04 15:47:02;;;;;;;24.93;10.30;;;;;;;-3.46;66.09;102325.17;1773231;80;21079;-68
2022/12/04 15:49:31;;;;;;;27.53;8.73;;;;;;;-3.45;66.40;102329.51;1772499;80;21611;-66
2022/12/04 15:52:18;;;;;;;20.83;9.30;;;;;;;-3.55;66.71;102328.53;1772836;80;21030;-67
2022/12/04 15:54:55;;;;;;;21.53;9.13;;;;;;;-3.54;66.57;102323.84;1772880;80;21108;-67
2022/12/04 15:57:32;;;;;;;19.10;9.80;;;;;;;-3.59;66.65;102327.08;1772677;80;21031;-67
2022/12/04 16:00:01;;;;;;;19.63;8.77;;;;;;;-3.49;66.91;102322.44;1772731;80;21048;-67
2022/12/04 16:02:32;;;;;;;17.63;8.40;;;;;;;-3.49;66.66;102329.76;1773159;80;21100;-67
2022/12/04 16:05:00;;;;;;;21.53;9.43;;;;;;;-3.68;66.68;102318.84;1771819;80;21076;-66
2022/12/04 16:07:28;;;;;;;17.62;8.10;;;;;;;-3.83;67.55;102320.55;1746497;80;21519;-66
2022/12/04 16:09:59;;;;;;;23.93;11.93;;;;;;;-3.90;67.82;102318.02;1772816;80;21060;-66
2022/12/04 16:12:28;;;;;;;31.45;13.75;;;;;;;-3.84;68.23;102329.08;1772763;80;21088;-67
2022/12/04 16:14:55;;;;;;;21.53;8.93;;;;;;;-3.83;68.19;102324.41;1776307;80;22201;-66
2022/12/04 16:17:29;;;;;;;20.97;9.30;;;;;;;-3.88;67.71;102321.98;1778174;80;21065;-66
2022/12/04 16:19:56;;;;;;;29.23;11.80;;;;;;;-3.83;67.72;102315.39;1751107;81;21104;-66
2022/12/04 16:22:23;;;;;;;21.27;9.57;;;;;;;-3.94;67.87;102317.35;1751434;81;22040;-67
2022/12/04 16:24:50;;;;;;;23.13;10.73;;;;;;;-3.86;67.86;102319.09;1776552;80;21697;-67
2022/12/04 16:27:21;;;;;;;21.27;10.40;;;;;;;-3.71;67.67;102313.50;1780623;80;21086;-66
2022/12/04 16:29:49;;;;;;;20.20;10.47;;;;;;;-3.65;66.78;102312.56;1780462;80;21073;-67
2022/12/04 16:32:19;;;;;;;34.23;9.90;;;;;;;-3.90;68.15;102313.28;1780994;80;21003;-66
2022/12/04 16:34:46;;;;;;;21.17;9.37;;;;;;;-3.82;67.80;102314.58;1780542;80;21057;-67
2022/12/04 16:37:19;;;;;;;22.47;10.13;;;;;;;-3.92;67.18;102309.73;1780934;80;21022;-66
2022/12/04 16:39:46;;;;;;;23.97;10.80;;;;;;;-3.78;67.46;102303.66;1780785;80;21957;-66
2022/12/04 16:42:25;;;;;;;24.97;8.97;;;;;;;-3.80;66.85;102303.97;1780206;80;21070;-67
2022/12/04 16:44:52;;;;;;;24.30;10.10;;;;;;;-3.84;66.68;102317.09;1780598;80;21053;-67
2022/12/04 16:47:20;;;;;;;19.77;9.07;;;;;;;-3.88;67.22;102303.95;1780492;80;21070;-65
2022/12/04 16:49:49;;;;;;;19.53;8.90;;;;;;;-3.90;67.04;102308.13;1780552;80;21077;-66
2022/12/04 16:52:15;;;;;;;18.53;7.93;;;;;;;-4.01;66.95;102301.95;1780747;80;21638;-67
2022/12/04 16:54:42;;;;;;;17.17;6.80;;;;;;;-3.98;66.55;102309.37;1780725;80;21030;-65
2022/12/04 16:57:08;;;;;;;18.20;7.43;;;;;;;-3.92;65.71;102307.16;1780609;80;21547;-66
2022/12/04 16:59:35;;;;;;;19.60;8.27;;;;;;;-3.77;65.55;102308.03;1780860;80;21038;-67
2022/12/04 17:02:03;;;;;;;20.77;9.03;;;;;;;-3.68;65.67;102312.41;1780508;80;21691;-66
2022/12/04 17:04:30;;;;;;;20.70;8.63;;;;;;;-3.68;66.11;102303.77;1780761;80;22153;-67
2022/12/04 17:06:56;;;;;;;19.90;10.50;;;;;;;-3.69;66.09;102303.30;1780622;80;21058;-67
2022/12/04 17:09:23;;;;;;;23.53;8.67;;;;;;;-3.76;67.12;102304.64;1780746;80;21101;-67
2022/12/04 17:11:50;;;;;;;19.50;7.93;;;;;;;-3.71;66.37;102305.77;1780616;80;21058;-66
2022/12/04 17:14:17;;;;;;;23.17;9.17;;;;;;;-3.77;66.84;102313.18;1790369;79;21618;-66
2022/12/04 17:16:45;;;;;;;18.03;8.07;;;;;;;-3.50;66.83;102310.34;1802193;79;21289;-66
2022/12/04 17:19:12;;;;;;;19.63;7.90;;;;;;;-3.39;67.07;102302.40;1802288;79;21207;-66
2022/12/04 17:21:39;;;;;;;18.93;8.17;;;;;;;-3.14;66.59;102302.86;1802117;79;21064;-67
2022/12/04 17:24:07;;;;;;;19.60;8.33;;;;;;;-3.33;64.77;102300.57;1803309;79;21079;-67
2022/12/04 17:26:33;;;;;;;21.57;8.77;;;;;;;-3.35;63.18;102297.43;1805386;79;21032;-67
2022/12/04 17:29:00;;;;;;;35.43;10.63;;;;;;;-3.61;63.23;102303.33;1805321;79;21917;-67
2022/12/04 17:31:27;;;;;;;464.80;122.80;;;;;;;-3.39;63.20;102316.98;1805387;79;21479;-66
2022/12/04 17:33:55;;;;;;;349.03;113.47;;;;;;;-3.77;63.88;102315.75;1805264;79;21099;-65
2022/12/04 17:36:25;;;;;;;162.27;60.57;;;;;;;-3.89;64.16;102320.19;1753926;79;21023;-65
2022/12/04 17:38:55;;;;;;;40.27;15.23;;;;;;;-4.04;65.45;102333.96;1805510;79;21023;-66
2022/12/04 17:41:21;;;;;;;20.15;9.23;;;;;;;-4.08;66.36;102315.27;1804781;79;21621;-67
2022/12/04 17:43:48;;;;;;;38.33;14.93;;;;;;;-3.99;66.15;102320.48;1792546;80;21067;-67
2022/12/04 17:46:19;;;;;;;34.80;15.00;;;;;;;-4.10;65.63;102318.16;1839566;78;21092;-66
2022/12/04 17:48:46;;;;;;;;;;;;;;;-4.20;66.22;102314.58;1828410;78;21149;-66
2022/12/04 17:51:18;;;;;;;60.57;29.70;;;;;;;-4.17;65.54;102316.03;1806731;79;20233;-66
2022/12/04 17:53:44;;;;;;;25.93;13.40;;;;;;;-4.47;66.41;102313.44;1828547;78;21744;-66
2022/12/04 17:56:16;;;;;;;21.20;9.73;;;;;;;-4.45;65.94;102319.97;1788136;80;21161;-67
2022/12/04 17:58:43;;;;;;;25.83;10.77;;;;;;;-4.40;65.77;102313.81;1788327;80;21067;-65
2022/12/04 18:01:15;;;;;;;23.73;9.90;;;;;;;-4.22;65.66;102324.77;1788275;80;21566;-66